Floodwood, Minnesota
Current Conditions -  °F | °C
As of 12:56 PM on Sunday 23 Nov 2014 (Local Time) from KCOQ Reporting Station
Haze Haze  
Wind Chill: 39°   Ceiling: 5000
Heat Index: 39°   Visibility: 4mi
Dew Point: 37°   Wind: 0mph
Humidity: 93%   Direction: NA
Pressure: 29.38"   Gusts: NA
Location:  46.93°N, 92.92°W
Report Text: KCOQ 231856Z AUTO 00000KT 4SM BR SCT009 BKN050 OVC090 04/03 A2938 RMK AO2
Loading
Personal Weather Stations






























Interactive Weather Map New forecast layout! Learn more

10-Day Weather Forecast

Advertisements
Track Severe Weather on mobile